Time;durP1;ratioP1;P1;durP2;ratioP2;P2;SDS_P1;SDS_P2;PMS_P1;PMS_P2;Temp;Humidity;BMP_temperature;BMP_pressure;BME280_temperature;BME280_humidity;BME280_pressure;Samples;Min_cycle;Max_cycle;Signal;HPM_P1;HPM_P2
2021/04/02 00:01:45;;;;;;;4.07;1.33;;;;;;;23.36;46.72;101670.09;5072012;28;20031;-69
2021/04/02 00:04:10;;;;;;;5.28;1.35;;;;;;;23.35;46.57;101677.47;5071998;28;20040;-70
2021/04/02 00:06:36;;;;;;;5.57;1.70;;;;;;;23.33;46.50;101674.03;5072507;28;20060;-71
2021/04/02 00:09:02;;;;;;;3.28;1.15;;;;;;;23.30;46.44;101684.53;5071889;28;20052;-70
2021/04/02 00:11:28;;;;;;;3.72;1.48;;;;;;;23.29;46.92;101669.09;5054083;28;20025;-70
2021/04/02 00:13:53;;;;;;;4.70;1.20;;;;;;;23.31;46.93;101669.78;5057742;28;20035;-70
2021/04/02 00:16:20;;;;;;;4.18;1.45;;;;;;;23.31;46.43;101670.63;5076104;28;20479;-70
2021/04/02 00:18:45;;;;;;;5.43;1.23;;;;;;;23.28;46.79;101659.16;5075958;28;20475;-70
2021/04/02 00:21:13;;;;;;;4.32;1.35;;;;;;;23.28;47.17;101649.03;5057728;28;20055;-71
2021/04/02 00:23:39;;;;;;;3.55;1.58;;;;;;;23.29;46.92;101656.25;5057762;28;20016;-71
2021/04/02 00:26:07;;;;;;;4.72;1.60;;;;;;;23.29;46.93;101649.91;5075329;28;20360;-70
2021/04/02 00:28:32;;;;;;;4.00;1.20;;;;;;;23.28;46.10;101637.22;5057807;28;20420;-71
2021/04/02 00:30:58;;;;;;;3.78;1.33;;;;;;;23.28;46.14;101634.47;5057917;28;20119;-70
2021/04/02 00:33:26;;;;;;;4.30;1.15;;;;;;;23.29;45.82;101628.81;5057428;28;20391;-70
2021/04/02 00:35:52;;;;;;;5.80;1.20;;;;;;;23.23;45.89;101623.22;5075395;28;20051;-70
2021/04/02 00:38:17;;;;;;;3.42;1.10;;;;;;;23.25;45.60;101632.97;5075333;28;20025;-71
2021/04/02 00:40:50;;;;;;;4.47;1.30;;;;;;;23.27;46.04;101638.25;5075603;28;20032;-71
2021/04/02 00:43:16;;;;;;;3.55;1.02;;;;;;;23.23;45.92;101631.44;5075286;28;20016;-72
2021/04/02 00:45:42;;;;;;;5.10;1.73;;;;;;;23.25;45.25;101632.09;5075360;28;20031;-71
2021/04/02 00:48:07;;;;;;;3.13;1.00;;;;;;;23.24;45.67;101619.44;5057092;28;20028;-70
2021/04/02 00:50:59;;;;;;;4.03;1.20;;;;;;;23.24;46.33;101622.19;5075431;28;20066;-71
2021/04/02 00:53:32;;;;;;;10.90;1.95;;;;;;;23.22;45.39;101621.50;5075406;28;20021;-72
2021/04/02 00:55:59;;;;;;;4.33;1.10;;;;;;;23.19;45.82;101613.66;5056662;28;20068;-71
2021/04/02 00:58:28;;;;;;;2.90;1.00;;;;;;;23.20;45.56;101608.00;5075125;28;20083;-71
2021/04/02 01:00:54;;;;;;;3.88;1.08;;;;;;;23.20;45.50;101615.38;5075042;28;20028;-72
2021/04/02 01:03:21;;;;;;;5.32;1.40;;;;;;;23.21;45.36;101615.19;5057053;28;20360;-70
2021/04/02 01:05:48;;;;;;;4.35;1.30;;;;;;;23.19;45.25;101613.66;5056903;28;20025;-71
2021/04/02 01:08:17;;;;;;;4.93;1.17;;;;;;;23.18;45.71;101611.94;5074750;28;20105;-71
2021/04/02 01:10:44;;;;;;;4.38;1.38;;;;;;;23.20;45.60;101609.88;5057080;28;20028;-71
2021/04/02 01:13:16;;;;;;;4.82;1.50;;;;;;;23.20;45.21;101607.13;5074660;28;20024;-70
2021/04/02 01:16:04;;;;;;;7.15;1.10;;;;;;;23.17;45.67;101602.00;5074659;28;20039;-71
2021/04/02 01:18:42;;;;;;;3.25;1.10;;;;;;;23.17;45.03;101596.50;5074812;28;20028;-72
2021/04/02 01:21:21;;;;;;;5.25;1.20;;;;;;;23.16;45.59;101590.16;5074542;28;20207;-70
2021/04/02 01:24:11;;;;;;;4.07;1.50;;;;;;;23.16;45.06;101589.31;5055296;28;20151;-70
2021/04/02 01:26:55;;;;;;;4.68;1.35;;;;;;;23.15;44.68;101588.47;5074227;28;20050;-70
2021/04/02 01:29:22;;;;;;;5.13;1.67;;;;;;;23.13;45.18;101578.72;5074516;28;20028;-72
2021/04/02 01:31:53;;;;;;;4.03;1.25;;;;;;;23.14;44.85;101585.91;5074492;28;20024;-70
2021/04/02 01:34:21;;;;;;;3.53;1.10;;;;;;;23.14;44.68;101580.44;5074045;28;20036;-70
2021/04/02 01:36:49;;;;;;;4.20;1.38;;;;;;;23.10;44.59;101578.06;5074758;28;20021;-71
2021/04/02 01:39:16;;;;;;;5.45;1.45;;;;;;;23.10;45.01;101574.47;5074084;28;20396;-71
2021/04/02 01:41:46;;;;;;;4.38;1.50;;;;;;;23.07;44.23;101570.22;5074334;28;20021;-70
2021/04/02 01:44:11;;;;;;;6.18;1.30;;;;;;;23.11;44.73;101579.75;5074086;28;20047;-70
2021/04/02 01:46:38;;;;;;;3.88;1.20;;;;;;;23.10;44.97;101575.31;5074545;28;20052;-71
2021/04/02 01:49:06;;;;;;;5.15;1.70;;;;;;;23.08;45.72;101582.88;5074007;28;20055;-69
2021/04/02 01:51:33;;;;;;;3.50;1.38;;;;;;;23.08;45.48;101577.41;5074265;28;20025;-70
2021/04/02 01:54:01;;;;;;;3.83;1.30;;;;;;;23.09;45.79;101573.63;5073801;28;20033;-70
2021/04/02 01:56:28;;;;;;;6.70;1.73;;;;;;;23.08;46.28;101560.09;5073548;28;20028;-69
2021/04/02 01:58:55;;;;;;;3.47;1.30;;;;;;;23.07;46.76;101553.75;5073752;28;20046;-69
2021/04/02 02:01:24;;;;;;;2.38;1.13;;;;;;;23.08;46.65;101549.97;5056190;28;20021;-69
2021/04/02 02:03:52;;;;;;;5.70;1.70;;;;;;;23.07;46.69;101548.25;5055855;28;20039;-70
2021/04/02 02:06:19;;;;;;;3.40;1.15;;;;;;;23.08;47.08;101549.97;5055769;28;20032;-69
2021/04/02 02:08:45;;;;;;;4.15;1.30;;;;;;;23.07;47.17;101542.78;5073843;28;20021;-70
2021/04/02 02:11:15;;;;;;;5.35;1.60;;;;;;;23.06;47.36;101543.81;5073593;28;20028;-70
2021/04/02 02:13:57;;;;;;;4.15;1.05;;;;;;;23.06;47.39;101535.59;5073643;28;20025;-69
2021/04/02 02:16:26;;;;;;;4.32;1.27;;;;;;;23.06;47.21;101527.38;5073617;28;20021;-69
2021/04/02 02:18:55;;;;;;;4.47;1.83;;;;;;;23.06;47.40;101530.09;5073708;28;20025;-70
2021/04/02 02:21:21;;;;;;;4.35;1.13;;;;;;;23.05;47.77;101522.91;5073451;28;20482;-69
2021/04/02 02:23:48;;;;;;;4.65;1.52;;;;;;;23.07;47.19;101525.47;5055439;28;20028;-69
2021/04/02 02:26:14;;;;;;;4.00;1.40;;;;;;;23.05;47.23;101519.31;5073072;28;20028;-71
2021/04/02 02:28:39;;;;;;;4.88;1.75;;;;;;;23.04;47.02;101515.75;5055520;28;20111;-70
2021/04/02 02:31:06;;;;;;;4.07;1.40;;;;;;;23.07;46.73;101526.31;5073199;28;20146;-69
2021/04/02 02:33:32;;;;;;;4.70;1.27;;;;;;;23.06;46.38;101521.03;5055286;28;20130;-70
2021/04/02 02:35:59;;;;;;;4.05;1.20;;;;;;;23.02;46.52;101512.34;5072612;28;20467;-69
2021/04/02 02:38:25;;;;;;;3.83;1.25;;;;;;;23.04;46.08;101514.88;5073185;28;20024;-70
2021/04/02 02:40:51;;;;;;;5.57;1.20;;;;;;;23.03;46.49;101514.03;5073271;28;20031;-70
2021/04/02 02:43:16;;;;;;;3.65;1.40;;;;;;;23.04;46.40;101514.88;5072958;28;20033;-70
2021/04/02 02:45:42;;;;;;;3.83;0.90;;;;;;;23.04;46.00;101510.25;5073061;28;20024;-71
2021/04/02 02:48:09;;;;;;;4.55;1.88;;;;;;;23.02;46.34;101498.63;5072703;28;20021;-71
2021/04/02 02:50:38;;;;;;;5.93;1.52;;;;;;;23.01;45.66;101498.78;5072981;28;20044;-70
2021/04/02 02:53:05;;;;;;;5.30;1.10;;;;;;;22.99;46.17;101413.97;5072738;28;20479;-69
2021/04/02 02:55:32;;;;;;;5.43;1.67;;;;;;;22.99;47.04;101405.72;5054766;28;20531;-71
2021/04/02 02:58:00;;;;;;;7.10;1.90;;;;;;;22.99;47.99;101400.25;5072585;28;20024;-71
2021/04/02 03:00:29;;;;;;;5.97;1.50;;;;;;;23.01;48.75;101466.75;5054861;28;20059;-70
2021/04/02 03:02:58;;;;;;;5.28;1.40;;;;;;;23.00;47.64;101486.97;5072713;28;20035;-70
2021/04/02 03:05:26;;;;;;;4.68;1.55;;;;;;;22.98;46.92;101483.56;5072763;28;20111;-70
2021/04/02 03:07:58;;;;;;;5.78;1.20;;;;;;;23.02;46.76;101482.16;5072546;28;20029;-70
2021/04/02 03:10:25;;;;;;;6.38;1.45;;;;;;;23.00;45.84;101481.47;5072939;28;20029;-70
2021/04/02 03:12:52;;;;;;;3.97;1.25;;;;;;;22.98;46.50;101472.59;5072570;28;20521;-71
2021/04/02 03:15:19;;;;;;;4.63;1.15;;;;;;;23.00;46.30;101459.53;5072559;28;20032;-71
2021/04/02 03:17:53;;;;;;;4.75;1.33;;;;;;;22.99;46.06;101463.31;5072601;28;20485;-71
2021/04/02 03:20:20;;;;;;;2.65;1.35;;;;;;;22.98;46.79;101456.13;5072444;28;20460;-71
2021/04/02 03:22:47;;;;;;;2.50;0.80;;;;;;;22.99;46.01;101457.84;5072672;28;20033;-71
2021/04/02 03:25:16;;;;;;;4.85;1.15;;;;;;;22.98;45.78;101455.28;5054162;28;20454;-71
2021/04/02 03:27:42;;;;;;;4.13;1.73;;;;;;;22.96;45.87;101444.50;5054522;28;20111;-71
2021/04/02 03:30:11;;;;;;;3.17;1.10;;;;;;;22.99;45.93;101446.88;5072184;28;20387;-71
2021/04/02 03:32:40;;;;;;;2.95;1.40;;;;;;;22.98;45.73;101444.31;5072423;28;20024;-71
2021/04/02 03:35:08;;;;;;;3.45;1.40;;;;;;;22.97;45.89;101442.59;5072139;28;20127;-72
2021/04/02 03:37:36;;;;;;;4.38;1.50;;;;;;;22.98;45.53;101450.66;5072472;28;20066;-71
2021/04/02 03:40:07;;;;;;;5.80;1.63;;;;;;;22.94;45.39;101443.84;5072593;28;20037;-71
2021/04/02 03:42:34;;;;;;;7.15;1.40;;;;;;;22.97;45.18;101445.34;5072343;28;20033;-71
2021/04/02 03:45:01;;;;;;;2.03;0.90;;;;;;;22.95;45.51;101434.56;5072322;28;20072;-70
2021/04/02 03:47:27;;;;;;;3.03;1.02;;;;;;;22.94;46.04;101434.75;5074144;28;20038;-71
2021/04/02 03:49:54;;;;;;;2.60;0.77;;;;;;;22.93;46.20;101431.19;5076356;28;20100;-72
2021/04/02 03:52:27;;;;;;;2.05;0.90;;;;;;;22.95;46.12;101428.25;5076322;28;20021;-71
2021/04/02 03:54:54;;;;;;;5.35;1.65;;;;;;;22.95;47.47;101418.13;5076151;28;20029;-71
2021/04/02 03:57:24;;;;;;;4.70;1.15;;;;;;;22.91;48.01;101421.44;5075976;28;20108;-71
2021/04/02 03:59:51;;;;;;;6.07;1.30;;;;;;;22.92;48.87;101417.66;5076089;28;20021;-70
2021/04/02 04:02:17;;;;;;;8.07;1.70;;;;;;;23.83;46.74;101400.72;5076090;28;20032;-72
2021/04/02 04:04:45;;;;;;;3.97;1.20;;;;;;;24.30;46.10;101402.94;5076268;28;20070;-71
2021/04/02 04:07:11;;;;;;;7.20;1.52;;;;;;;24.51;45.37;101395.72;5075952;28;20062;-70
2021/04/02 04:09:40;;;;;;;3.25;1.33;;;;;;;24.68;44.09;101388.88;5076076;28;20028;-72
2021/04/02 04:12:09;;;;;;;6.20;2.20;;;;;;;24.80;43.68;101402.91;5075802;28;20178;-69
2021/04/02 04:14:36;;;;;;;4.35;1.13;;;;;;;24.85;43.62;101395.75;5076033;28;20040;-71
2021/04/02 04:17:04;;;;;;;4.15;1.20;;;;;;;24.99;42.73;101384.84;5057907;28;20028;-72
2021/04/02 04:19:30;;;;;;;3.63;1.30;;;;;;;24.98;42.88;101383.16;5075891;28;20490;-71
2021/04/02 04:21:58;;;;;;;4.43;1.70;;;;;;;25.07;42.73;101379.22;5075662;28;20044;-70
2021/04/02 04:24:26;;;;;;;4.68;1.38;;;;;;;25.01;42.83;101386.38;5075544;28;20028;-71
2021/04/02 04:26:54;;;;;;;4.55;1.55;;;;;;;25.10;42.60;101381.56;5075831;28;20020;-70
2021/04/02 04:29:25;;;;;;;3.85;1.20;;;;;;;25.09;43.08;101379.88;5075582;28;20406;-70
2021/04/02 04:31:52;;;;;;;6.22;1.40;;;;;;;25.09;42.20;101375.22;5057857;28;20021;-70
2021/04/02 04:34:20;;;;;;;3.55;1.33;;;;;;;25.16;42.37;101369.72;5090700;28;20044;-71
2021/04/02 04:36:46;;;;;;;2.45;1.05;;;;;;;25.15;42.25;101368.88;5075618;28;20024;-71
2021/04/02 04:39:12;;;;;;;5.28;1.20;;;;;;;25.16;41.97;101369.72;5057483;28;20034;-70
2021/04/02 04:41:39;;;;;;;4.65;1.38;;;;;;;25.16;41.74;101372.47;5057516;28;20112;-71
2021/04/02 04:44:05;;;;;;;3.50;1.27;;;;;;;25.20;41.80;101371.06;5075193;28;20111;-71
2021/04/02 04:46:32;;;;;;;4.45;1.10;;;;;;;25.25;41.67;101374.03;5075412;28;20062;-71
2021/04/02 04:48:58;;;;;;;4.20;1.40;;;;;;;25.25;41.83;101376.78;5075325;28;20052;-70
2021/04/02 04:51:26;;;;;;;5.47;1.13;;;;;;;25.23;41.67;101375.28;5075578;28;20064;-71
2021/04/02 04:53:55;;;;;;;7.43;1.30;;;;;;;25.30;41.14;101382.50;5057125;28;20028;-71
2021/04/02 04:56:23;;;;;;;3.88;1.40;;;;;;;25.27;41.30;101377.41;5074661;28;20264;-71
2021/04/02 04:58:51;;;;;;;7.88;1.50;;;;;;;25.33;41.09;101376.59;5074926;28;20476;-70
2021/04/02 05:01:18;;;;;;;3.15;1.10;;;;;;;25.31;41.45;101373.19;5075029;28;20440;-71
2021/04/02 05:03:44;;;;;;;4.20;1.20;;;;;;;25.35;41.59;101371.72;5057116;28;20020;-71
2021/04/02 05:06:13;;;;;;;4.15;1.35;;;;;;;25.33;41.25;101364.72;5056924;28;20028;-70
2021/04/02 05:08:41;;;;;;;4.07;1.20;;;;;;;25.37;40.95;101364.13;5074954;28;20463;-70
2021/04/02 05:11:13;;;;;;;4.93;1.40;;;;;;;25.33;41.32;101365.56;5074775;28;20025;-70
2021/04/02 05:13:40;;;;;;;3.67;1.33;;;;;;;25.39;41.10;101353.78;5074820;28;20021;-70
2021/04/02 05:16:07;;;;;;;5.03;1.30;;;;;;;25.37;41.18;101361.38;5074593;28;20127;-71
2021/04/02 05:18:33;;;;;;;3.78;1.35;;;;;;;25.41;41.26;101367.31;5056918;28;20020;-71
2021/04/02 05:20:58;;;;;;;5.30;1.17;;;;;;;25.40;41.43;101363.72;5074707;28;20035;-71
2021/04/02 05:23:24;;;;;;;3.72;1.58;;;;;;;25.49;41.24;101365.22;5075007;28;20074;-72
2021/04/02 05:25:49;;;;;;;4.63;1.38;;;;;;;25.47;41.35;101355.47;5074317;28;20380;-69
2021/04/02 05:28:14;;;;;;;4.22;1.00;;;;;;;25.52;41.81;101363.09;5074518;28;20030;-70
2021/04/02 05:30:40;;;;;;;2.22;1.00;;;;;;;25.54;41.53;101361.03;5074710;28;20085;-71
2021/04/02 05:33:06;;;;;;;3.75;0.95;;;;;;;25.50;42.15;101358.66;5074390;28;20048;-71
2021/04/02 05:35:32;;;;;;;4.68;1.65;;;;;;;25.47;41.99;101350.81;5074564;28;20033;-70
2021/04/02 05:37:58;;;;;;;4.07;1.40;;;;;;;25.46;41.36;101349.13;5074212;28;20032;-72
2021/04/02 05:40:24;;;;;;;5.40;2.08;;;;;;;25.44;41.26;101350.38;5074366;28;20028;-70
2021/04/02 05:43:01;;;;;;;3.95;1.40;;;;;;;25.43;41.18;101352.28;5056497;28;20028;-70
2021/04/02 05:45:29;;;;;;;4.18;1.38;;;;;;;25.43;41.56;101349.53;5074288;28;20025;-71
2021/04/02 05:47:57;;;;;;;2.40;0.93;;;;;;;25.48;41.83;101349.75;5074100;28;20039;-70
2021/04/02 05:50:25;;;;;;;3.50;1.13;;;;;;;25.57;41.77;101346.84;5074152;28;20021;-72
2021/04/02 05:52:54;;;;;;;8.13;1.90;;;;;;;25.59;42.17;101347.47;5074254;28;20031;-71
2021/04/02 05:55:20;;;;;;;3.20;1.27;;;;;;;25.53;42.20;101343.66;5073794;28;20025;-71
2021/04/02 05:57:46;;;;;;;3.13;1.38;;;;;;;25.56;41.95;101348.75;5056146;28;20094;-71
2021/04/02 06:00:14;;;;;;;4.18;1.20;;;;;;;25.57;41.84;101349.59;5074092;28;20052;-71
2021/04/02 06:02:40;;;;;;;5.43;1.40;;;;;;;25.57;42.72;101346.84;5056025;28;20039;-72
2021/04/02 06:05:08;;;;;;;4.35;1.50;;;;;;;25.56;42.35;101348.75;5073757;28;20028;-72
2021/04/02 06:07:36;;;;;;;4.72;0.90;;;;;;;25.56;41.93;101347.91;5056355;28;20372;-70
2021/04/02 06:10:01;;;;;;;4.68;0.98;;;;;;;25.58;42.42;101351.28;5072911;28;20071;-71
2021/04/02 06:12:26;;;;;;;5.38;1.45;;;;;;;25.59;42.12;101347.47;5073746;28;20051;-71
2021/04/02 06:14:51;;;;;;;5.32;1.35;;;;;;;25.62;41.94;101339.66;5073686;28;20211;-70
2021/04/02 06:17:17;;;;;;;5.95;1.73;;;;;;;25.56;41.57;101343.25;5055697;28;20028;-72
2021/04/02 06:19:43;;;;;;;7.13;1.65;;;;;;;25.55;41.99;101341.53;5073629;28;20054;-70
2021/04/02 06:22:08;;;;;;;4.50;1.50;;;;;;;25.55;41.85;101348.97;5073299;28;20462;-71
2021/04/02 06:24:46;;;;;;;4.43;1.20;;;;;;;25.61;41.79;101339.84;5073610;28;20012;-71
2021/04/02 06:27:13;;;;;;;4.80;1.13;;;;;;;25.61;41.50;101348.13;5073338;28;20028;-71
2021/04/02 06:29:43;;;;;;;5.15;1.42;;;;;;;25.62;41.41;101341.56;5073422;28;20111;-72
2021/04/02 06:32:14;;;;;;;5.15;1.75;;;;;;;25.62;41.73;101347.91;5055168;28;20111;-70
2021/04/02 06:34:45;;;;;;;5.20;1.67;;;;;;;25.66;41.88;101343.66;5055194;28;20044;-70
2021/04/02 06:37:10;;;;;;;7.45;1.60;;;;;;;25.65;41.76;101349.38;5073061;28;20082;-72
2021/04/02 06:39:36;;;;;;;4.50;1.38;;;;;;;25.72;41.21;101351.16;5073333;28;20459;-72
2021/04/02 06:42:03;;;;;;;4.38;1.55;;;;;;;25.72;41.48;101353.06;5072978;28;20024;-71
2021/04/02 06:44:31;;;;;;;3.63;1.42;;;;;;;25.62;41.91;101350.66;5073164;28;20016;-71
2021/04/02 06:46:56;;;;;;;2.70;0.95;;;;;;;25.67;41.31;101355.53;5073100;28;20099;-70
2021/04/02 06:49:22;;;;;;;3.33;1.00;;;;;;;25.71;41.37;101354.13;5072998;28;20124;-72
2021/04/02 06:51:50;;;;;;;5.35;1.40;;;;;;;25.69;41.02;101353.44;5073005;28;20035;-71
2021/04/02 06:54:18;;;;;;;4.57;1.80;;;;;;;25.66;40.68;101353.84;5072554;28;20513;-71
2021/04/02 06:56:56;;;;;;;4.85;1.60;;;;;;;25.69;40.48;101351.53;5073010;28;20054;-70
2021/04/02 06:59:24;;;;;;;4.35;1.30;;;;;;;25.65;40.34;101358.50;5072812;28;20021;-70
2021/04/02 07:01:52;;;;;;;3.85;1.23;;;;;;;25.66;40.46;101359.34;5072822;28;20146;-71
2021/04/02 07:04:20;;;;;;;4.28;1.40;;;;;;;25.65;40.19;101352.13;5072709;28;20016;-71
2021/04/02 07:06:48;;;;;;;4.95;1.35;;;;;;;25.69;40.23;101351.53;5055063;28;20031;-71
2021/04/02 07:09:18;;;;;;;5.75;1.40;;;;;;;25.69;39.91;101353.44;5072507;28;20024;-72
2021/04/02 07:11:45;;;;;;;4.00;1.23;;;;;;;25.65;39.97;101354.91;5054838;28;20032;-71
2021/04/02 07:14:11;;;;;;;4.40;1.50;;;;;;;25.64;40.32;101344.94;5072416;28;20460;-72
2021/04/02 07:16:37;;;;;;;5.65;1.42;;;;;;;25.65;40.14;101341.13;5072731;28;20025;-72
2021/04/02 07:19:03;;;;;;;4.20;1.35;;;;;;;25.66;40.17;101343.66;5073047;28;20039;-70
2021/04/02 07:21:29;;;;;;;4.80;1.50;;;;;;;25.72;40.33;101353.06;5072638;28;20020;-71
2021/04/02 07:23:55;;;;;;;4.18;1.48;;;;;;;25.68;40.33;101351.75;5072025;28;20024;-71
2021/04/02 07:26:21;;;;;;;4.82;1.50;;;;;;;25.68;40.11;101351.75;5072490;28;20029;-71
2021/04/02 07:28:47;;;;;;;4.57;1.48;;;;;;;25.69;40.51;101347.94;5072734;28;20127;-72
2021/04/02 07:31:13;;;;;;;4.88;1.60;;;;;;;25.72;39.89;101353.06;5072368;28;20107;-72
2021/04/02 07:33:42;;;;;;;6.28;1.48;;;;;;;25.68;40.58;101352.59;5072230;28;20049;-71
2021/04/02 07:36:10;;;;;;;5.20;1.27;;;;;;;25.70;40.21;101355.19;5054074;28;20038;-72
2021/04/02 07:38:36;;;;;;;3.75;1.20;;;;;;;25.70;40.05;101356.03;5072561;28;20107;-71
2021/04/02 07:41:12;;;;;;;4.53;1.55;;;;;;;25.69;39.91;101343.28;5072275;28;20215;-72
2021/04/02 07:43:54;;;;;;;4.32;1.50;;;;;;;25.69;40.24;101342.44;5072149;28;20025;-73
2021/04/02 07:46:24;;;;;;;3.85;1.38;;;;;;;25.74;40.19;101340.78;5072262;28;20024;-71
2021/04/02 07:49:10;;;;;;;4.97;1.35;;;;;;;25.71;39.81;101337.59;5072419;28;20031;-72
2021/04/02 07:51:46;;;;;;;2.30;0.90;;;;;;;25.71;40.00;101340.34;5072316;28;20051;-72
2021/04/02 07:54:22;;;;;;;2.60;1.00;;;;;;;25.73;40.30;101339.09;5071644;28;20023;-71
2021/04/02 07:56:51;;;;;;;4.95;1.20;;;;;;;25.77;40.39;101328.50;5054358;28;20025;-72
2021/04/02 07:59:17;;;;;;;5.93;1.63;;;;;;;25.83;40.71;101326.78;5054137;28;20407;-74
2021/04/02 08:01:59;;;;;;;4.88;1.75;;;;;;;25.78;41.15;101341.19;5054191;28;20027;-72
2021/04/02 08:04:36;;;;;;;5.85;1.45;;;;;;;25.73;41.52;101329.97;5072205;28;20024;-72
2021/04/02 08:07:02;;;;;;;4.47;1.17;;;;;;;25.76;41.76;101332.31;5072017;28;20047;-73
2021/04/02 08:09:27;;;;;;;3.70;1.40;;;;;;;25.76;42.06;101333.16;5072170;28;20024;-71
2021/04/02 08:11:58;;;;;;;5.28;1.48;;;;;;;25.74;42.18;101329.75;5072032;28;20466;-72
2021/04/02 08:14:35;;;;;;;4.32;1.05;;;;;;;25.79;42.07;101318.09;5072103;28;20031;-72
2021/04/02 08:17:01;;;;;;;5.78;1.70;;;;;;;25.75;42.00;101314.94;5072022;28;20467;-71
2021/04/02 08:19:34;;;;;;;3.80;1.20;;;;;;;25.79;41.63;101315.34;5072030;28;20589;-72
2021/04/02 08:22:01;;;;;;;5.20;1.33;;;;;;;25.75;41.73;101317.69;5071933;28;20031;-72
2021/04/02 08:24:28;;;;;;;4.28;1.27;;;;;;;25.75;41.79;101309.41;5071729;28;20032;-72
2021/04/02 08:26:54;;;;;;;3.10;0.90;;;;;;;25.79;41.94;101305.19;5071922;28;20039;-73
2021/04/02 08:29:22;;;;;;;3.45;1.38;;;;;;;25.78;41.59;101300.75;5071860;28;20051;-72
2021/04/02 08:31:51;;;;;;;3.83;1.10;;;;;;;25.74;41.79;101306.88;5053890;28;20464;-72
2021/04/02 08:34:19;;;;;;;4.07;1.30;;;;;;;25.77;41.72;101292.69;5042446;28;20041;-72
2021/04/02 08:36:46;;;;;;;4.40;1.20;;;;;;;25.79;41.22;101298.84;5035757;28;20044;-72
2021/04/02 08:39:12;;;;;;;5.68;1.50;;;;;;;25.76;41.44;101293.75;5035478;28;20022;-72
2021/04/02 08:41:37;;;;;;;4.18;1.20;;;;;;;25.73;41.39;101294.16;5034366;28;20021;-72
2021/04/02 08:44:03;;;;;;;5.25;1.50;;;;;;;25.74;40.88;101293.13;5035546;28;20105;-72
2021/04/02 08:46:34;;;;;;;4.97;1.38;;;;;;;25.77;41.58;101281.66;5035514;28;20017;-74
2021/04/02 08:49:00;;;;;;;3.53;1.30;;;;;;;25.75;41.02;101287.41;5034102;28;20120;-73
2021/04/02 08:51:25;;;;;;;5.22;1.65;;;;;;;25.77;40.71;101281.66;5035466;28;20955;-72
2021/04/02 08:53:50;;;;;;;3.88;1.27;;;;;;;25.79;40.70;101282.31;5033573;28;20017;-72
2021/04/02 08:56:20;;;;;;;3.08;1.40;;;;;;;25.76;40.44;101283.59;5035142;28;20060;-72
2021/04/02 08:58:47;;;;;;;2.83;1.13;;;;;;;25.78;41.07;101289.72;5034048;28;20464;-74
2021/04/02 09:01:17;;;;;;;3.97;1.38;;;;;;;25.82;40.41;101287.38;5033803;28;20025;-72
2021/04/02 09:03:43;;;;;;;4.72;1.33;;;;;;;25.77;40.61;101300.94;5035209;28;20021;-73
2021/04/02 09:06:09;;;;;;;3.95;1.35;;;;;;;25.79;40.70;101293.31;5033558;28;20598;-71
2021/04/02 09:08:36;;;;;;;4.75;1.17;;;;;;;25.80;40.85;101284.00;5034975;28;20112;-73
2021/04/02 09:11:02;;;;;;;5.13;2.15;;;;;;;25.80;40.68;101284.00;5034923;28;20104;-71
2021/04/02 09:13:41;;;;;;;3.63;1.77;;;;;;;25.78;40.55;101291.63;5035003;28;20048;-72
2021/04/02 09:16:15;;;;;;;2.58;1.10;;;;;;;25.79;40.65;101296.06;5033359;28;20025;-71
2021/04/02 09:18:53;;;;;;;5.72;1.85;;;;;;;25.86;40.18;101283.16;5033701;28;20124;-72
2021/04/02 09:21:20;;;;;;;4.07;1.60;;;;;;;25.85;40.24;101286.97;5035024;28;20527;-72
2021/04/02 09:23:50;;;;;;;6.50;1.40;;;;;;;25.78;40.46;101297.13;5034265;28;20029;-72
2021/04/02 09:26:16;;;;;;;5.30;1.73;;;;;;;25.79;40.54;101294.16;5033273;28;20465;-72
2021/04/02 09:28:42;;;;;;;4.10;1.45;;;;;;;25.83;39.88;101299.25;5034820;28;20026;-72
2021/04/02 09:31:18;;;;;;;2.72;1.00;;;;;;;25.81;40.09;101293.97;5033279;28;20075;-72
2021/04/02 09:33:45;;;;;;;4.15;1.30;;;;;;;25.82;40.18;101301.16;5033089;28;20423;-73
2021/04/02 09:36:11;;;;;;;4.13;1.33;;;;;;;25.84;40.45;101288.03;5034303;28;20021;-74
2021/04/02 09:38:37;;;;;;;5.20;1.35;;;;;;;25.83;40.00;101296.50;5033346;28;20044;-73
2021/04/02 09:41:02;;;;;;;5.15;1.10;;;;;;;25.83;39.89;101288.22;5034396;28;20578;-72
2021/04/02 09:43:49;;;;;;;6.78;2.50;;;;;;;25.81;40.52;101285.69;5034477;28;20064;-72
2021/04/02 09:46:32;;;;;;;4.82;1.30;;;;;;;25.79;40.01;101293.31;5033198;28;20029;-73
2021/04/02 09:49:04;;;;;;;5.35;1.35;;;;;;;25.80;40.65;101272.97;5034360;28;20112;-72
2021/04/02 09:51:30;;;;;;;4.30;1.50;;;;;;;25.85;40.60;101272.34;5034638;28;20033;-72
2021/04/02 09:53:55;;;;;;;3.67;1.15;;;;;;;25.84;40.72;101274.25;5033749;28;20025;-71
2021/04/02 09:56:20;;;;;;;3.80;1.30;;;;;;;25.85;41.08;101270.44;5034158;28;20108;-71
2021/04/02 09:58:46;;;;;;;4.55;0.82;;;;;;;25.86;41.49;101266.63;5034226;28;20441;-71
2021/04/02 10:01:11;;;;;;;3.00;1.15;;;;;;;25.86;41.52;101272.13;5032439;28;20510;-72
2021/04/02 10:03:37;;;;;;;4.30;1.42;;;;;;;25.86;42.01;101272.13;5033825;28;20060;-72
2021/04/02 10:06:02;;;;;;;3.28;1.40;;;;;;;25.86;41.54;101272.13;5033814;28;20025;-71
2021/04/02 10:08:28;;;;;;;4.20;1.38;;;;;;;25.87;41.66;101273.00;5033880;28;20022;-72
2021/04/02 10:10:53;;;;;;;4.72;1.40;;;;;;;25.87;41.47;101279.38;5033977;28;20087;-73
2021/04/02 10:13:18;;;;;;;5.68;1.48;;;;;;;25.82;41.95;101276.38;5033722;28;20037;-72
2021/04/02 10:15:43;;;;;;;4.25;1.42;;;;;;;25.84;41.52;101267.91;5033842;28;20376;-72
2021/04/02 10:18:09;;;;;;;3.53;1.42;;;;;;;25.85;41.50;101273.19;5033552;28;20032;-72
2021/04/02 10:20:34;;;;;;;6.32;1.67;;;;;;;25.83;41.61;101271.72;5034059;28;20033;-71
2021/04/02 10:22:59;;;;;;;5.32;2.35;;;;;;;25.83;41.45;101272.56;5033367;28;20025;-72
2021/04/02 10:25:24;;;;;;;3.80;1.40;;;;;;;25.91;41.27;101274.28;5033585;28;20040;-72
2021/04/02 10:27:50;;;;;;;3.63;1.42;;;;;;;25.90;41.01;101278.09;5033572;28;20087;-72
2021/04/02 10:30:16;;;;;;;5.88;1.40;;;;;;;25.88;41.04;101272.78;5033363;28;20032;-71
2021/04/02 10:32:41;;;;;;;3.20;1.50;;;;;;;25.83;40.67;101271.72;5032261;28;20518;-71
2021/04/02 10:35:07;;;;;;;4.95;1.35;;;;;;;25.85;41.03;101275.94;5067398;28;20120;-72
2021/04/02 10:37:32;;;;;;;5.22;1.60;;;;;;;25.87;40.80;101279.38;5073311;28;20026;-71
2021/04/02 10:39:57;;;;;;;4.00;1.40;;;;;;;25.87;40.47;101279.38;5073041;28;20052;-72
2021/04/02 10:42:22;;;;;;;4.82;1.65;;;;;;;25.83;40.51;101272.56;5073135;28;20024;-72
2021/04/02 10:44:48;;;;;;;3.15;1.23;;;;;;;25.85;40.97;101281.44;5073269;28;20032;-73
2021/04/02 10:47:13;;;;;;;4.82;1.40;;;;;;;25.86;40.07;101272.13;5072937;28;20379;-71
2021/04/02 10:49:38;;;;;;;2.80;1.10;;;;;;;25.91;40.46;101280.63;5073113;28;20024;-71
2021/04/02 10:52:04;;;;;;;2.58;1.20;;;;;;;25.86;40.47;101283.16;5072792;28;20435;-74
2021/04/02 10:54:30;;;;;;;7.25;1.73;;;;;;;25.86;39.88;101277.63;5072669;28;20028;-73
2021/04/02 10:56:55;;;;;;;4.18;1.02;;;;;;;25.89;40.58;101274.50;5054759;28;20029;-72
2021/04/02 10:59:20;;;;;;;4.65;1.60;;;;;;;25.85;40.39;101275.94;5073071;28;20021;-72
2021/04/02 11:01:45;;;;;;;3.50;1.25;;;;;;;25.86;40.37;101272.13;5072843;28;20085;-72
2021/04/02 11:04:11;;;;;;;6.05;1.73;;;;;;;25.88;40.28;101281.06;5072796;28;20025;-72
2021/04/02 11:06:36;;;;;;;5.10;1.63;;;;;;;25.87;40.02;101273.84;5072965;28;20029;-74
2021/04/02 11:09:02;;;;;;;3.92;1.50;;;;;;;25.86;40.17;101269.38;5072606;28;20020;-72
2021/04/02 11:11:27;;;;;;;3.95;1.20;;;;;;;25.85;39.71;101267.69;5073058;28;20032;-73
2021/04/02 11:13:53;;;;;;;4.47;1.40;;;;;;;25.85;40.39;101256.66;5072443;28;20036;-72
2021/04/02 11:16:18;;;;;;;5.65;1.60;;;;;;;25.88;40.58;101253.50;5071790;28;20348;-72
2021/04/02 11:18:46;;;;;;;4.63;1.02;;;;;;;25.86;40.20;101274.88;5063282;28;20035;-74
2021/04/02 11:21:11;;;;;;;4.45;1.40;;;;;;;25.91;40.12;101269.63;5035700;28;20024;-75
2021/04/02 11:23:37;;;;;;;4.38;1.40;;;;;;;25.90;39.86;101272.56;5045356;28;20028;-73
2021/04/02 11:26:03;;;;;;;4.68;1.27;;;;;;;25.90;39.51;101267.06;5054058;28;20029;-72
2021/04/02 11:28:28;;;;;;;5.00;1.30;;;;;;;25.88;40.13;101272.78;5058245;28;20052;-74